sensor_id;sensor_type;location;lat;lon;timestamp;P1;durP1;ratioP1;P2;durP2;ratioP2
72127;SDS011;60000;51.030;7.024;2023-07-20T00:01:43;4.97;;;1.40;;
72127;SDS011;60000;51.030;7.024;2023-07-20T00:04:09;4.00;;;1.40;;
72127;SDS011;60000;51.030;7.024;2023-07-20T00:06:35;4.33;;;1.60;;
72127;SDS011;60000;51.030;7.024;2023-07-20T00:09:00;3.83;;;1.47;;
72127;SDS011;60000;51.030;7.024;2023-07-20T00:11:26;4.80;;;1.80;;
72127;SDS011;60000;51.030;7.024;2023-07-20T00:13:52;4.93;;;1.80;;
72127;SDS011;60000;51.030;7.024;2023-07-20T00:16:17;5.23;;;1.83;;
72127;SDS011;60000;51.030;7.024;2023-07-20T00:18:42;5.97;;;1.80;;
72127;SDS011;60000;51.030;7.024;2023-07-20T00:21:08;5.78;;;1.67;;
72127;SDS011;60000;51.030;7.024;2023-07-20T00:23:34;6.30;;;1.90;;
72127;SDS011;60000;51.030;7.024;2023-07-20T00:25:59;7.50;;;2.40;;
72127;SDS011;60000;51.030;7.024;2023-07-20T00:28:24;6.47;;;2.40;;
72127;SDS011;60000;51.030;7.024;2023-07-20T00:30:49;7.97;;;2.47;;
72127;SDS011;60000;51.030;7.024;2023-07-20T00:33:16;6.32;;;2.20;;
72127;SDS011;60000;51.030;7.024;2023-07-20T00:35:42;6.50;;;2.20;;
72127;SDS011;60000;51.030;7.024;2023-07-20T00:38:07;7.27;;;2.60;;
72127;SDS011;60000;51.030;7.024;2023-07-20T00:40:36;7.63;;;2.20;;
72127;SDS011;60000;51.030;7.024;2023-07-20T00:43:02;7.33;;;1.97;;
72127;SDS011;60000;51.030;7.024;2023-07-20T00:45:28;6.50;;;1.80;;
72127;SDS011;60000;51.030;7.024;2023-07-20T00:47:54;4.63;;;1.77;;
72127;SDS011;60000;51.030;7.024;2023-07-20T00:50:20;4.32;;;1.70;;
72127;SDS011;60000;51.030;7.024;2023-07-20T00:52:45;4.77;;;1.90;;
72127;SDS011;60000;51.030;7.024;2023-07-20T00:55:11;6.63;;;1.97;;
72127;SDS011;60000;51.030;7.024;2023-07-20T00:57:36;9.63;;;2.30;;
72127;SDS011;60000;51.030;7.024;2023-07-20T01:00:02;8.27;;;2.40;;
72127;SDS011;60000;51.030;7.024;2023-07-20T01:02:28;9.82;;;2.45;;
72127;SDS011;60000;51.030;7.024;2023-07-20T01:04:53;7.40;;;2.63;;
72127;SDS011;60000;51.030;7.024;2023-07-20T01:07:32;6.23;;;2.30;;
72127;SDS011;60000;51.030;7.024;2023-07-20T01:10:13;7.07;;;2.28;;
72127;SDS011;60000;51.030;7.024;2023-07-20T01:12:46;7.32;;;2.33;;
72127;SDS011;60000;51.030;7.024;2023-07-20T01:15:13;8.45;;;2.50;;
72127;SDS011;60000;51.030;7.024;2023-07-20T01:17:39;7.93;;;2.40;;
72127;SDS011;60000;51.030;7.024;2023-07-20T01:20:06;6.20;;;2.10;;
72127;SDS011;60000;51.030;7.024;2023-07-20T01:27:36;4.93;;;1.83;;
72127;SDS011;60000;51.030;7.024;2023-07-20T01:33:13;4.50;;;1.50;;
72127;SDS011;60000;51.030;7.024;2023-07-20T01:35:41;4.70;;;1.77;;
72127;SDS011;60000;51.030;7.024;2023-07-20T01:38:09;5.07;;;1.40;;
72127;SDS011;60000;51.030;7.024;2023-07-20T01:40:35;6.00;;;1.75;;
72127;SDS011;60000;51.030;7.024;2023-07-20T01:43:01;4.80;;;1.70;;
72127;SDS011;60000;51.030;7.024;2023-07-20T01:45:27;5.57;;;1.73;;
72127;SDS011;60000;51.030;7.024;2023-07-20T01:47:52;4.93;;;1.90;;
72127;SDS011;60000;51.030;7.024;2023-07-20T01:50:18;4.90;;;1.70;;
72127;SDS011;60000;51.030;7.024;2023-07-20T01:52:43;7.50;;;2.40;;
72127;SDS011;60000;51.030;7.024;2023-07-20T01:55:08;7.83;;;2.60;;
72127;SDS011;60000;51.030;7.024;2023-07-20T01:57:34;7.82;;;2.40;;
72127;SDS011;60000;51.030;7.024;2023-07-20T01:59:59;7.07;;;2.47;;
72127;SDS011;60000;51.030;7.024;2023-07-20T02:02:26;6.43;;;2.60;;
72127;SDS011;60000;51.030;7.024;2023-07-20T02:04:53;5.03;;;1.80;;
72127;SDS011;60000;51.030;7.024;2023-07-20T02:07:18;5.80;;;2.17;;
72127;SDS011;60000;51.030;7.024;2023-07-20T02:09:43;6.50;;;2.20;;
72127;SDS011;60000;51.030;7.024;2023-07-20T02:12:09;6.40;;;2.77;;
72127;SDS011;60000;51.030;7.024;2023-07-20T02:14:34;9.30;;;2.77;;
72127;SDS011;60000;51.030;7.024;2023-07-20T02:16:59;8.50;;;2.85;;
72127;SDS011;60000;51.030;7.024;2023-07-20T02:19:26;7.97;;;3.27;;
72127;SDS011;60000;51.030;7.024;2023-07-20T02:21:52;9.20;;;2.80;;
72127;SDS011;60000;51.030;7.024;2023-07-20T02:24:18;7.00;;;2.70;;
72127;SDS011;60000;51.030;7.024;2023-07-20T02:26:43;10.13;;;2.83;;
72127;SDS011;60000;51.030;7.024;2023-07-20T02:29:08;7.13;;;2.43;;
72127;SDS011;60000;51.030;7.024;2023-07-20T02:31:36;5.18;;;2.00;;
72127;SDS011;60000;51.030;7.024;2023-07-20T02:34:02;6.18;;;2.28;;
72127;SDS011;60000;51.030;7.024;2023-07-20T02:36:27;4.80;;;1.87;;
72127;SDS011;60000;51.030;7.024;2023-07-20T02:38:53;5.97;;;2.40;;
72127;SDS011;60000;51.030;7.024;2023-07-20T02:41:18;6.33;;;2.10;;
72127;SDS011;60000;51.030;7.024;2023-07-20T02:43:43;4.63;;;1.90;;
72127;SDS011;60000;51.030;7.024;2023-07-20T02:46:09;5.53;;;1.90;;
72127;SDS011;60000;51.030;7.024;2023-07-20T02:48:34;5.32;;;1.85;;
72127;SDS011;60000;51.030;7.024;2023-07-20T02:51:00;6.23;;;2.47;;
72127;SDS011;60000;51.030;7.024;2023-07-20T02:53:25;6.13;;;2.30;;
72127;SDS011;60000;51.030;7.024;2023-07-20T02:55:51;5.93;;;1.98;;
72127;SDS011;60000;51.030;7.024;2023-07-20T02:58:16;5.17;;;2.00;;
72127;SDS011;60000;51.030;7.024;2023-07-20T03:00:42;4.57;;;1.90;;
72127;SDS011;60000;51.030;7.024;2023-07-20T03:03:08;4.15;;;1.60;;
72127;SDS011;60000;51.030;7.024;2023-07-20T03:05:34;6.20;;;2.10;;
72127;SDS011;60000;51.030;7.024;2023-07-20T03:08:00;7.80;;;2.00;;
72127;SDS011;60000;51.030;7.024;2023-07-20T03:10:27;6.85;;;2.30;;
72127;SDS011;60000;51.030;7.024;2023-07-20T03:12:53;8.83;;;2.87;;
72127;SDS011;60000;51.030;7.024;2023-07-20T03:15:18;11.27;;;3.37;;
72127;SDS011;60000;51.030;7.024;2023-07-20T03:17:43;7.73;;;2.80;;
72127;SDS011;60000;51.030;7.024;2023-07-20T03:20:09;9.03;;;2.80;;
72127;SDS011;60000;51.030;7.024;2023-07-20T03:22:35;7.63;;;3.00;;
72127;SDS011;60000;51.030;7.024;2023-07-20T03:25:00;8.93;;;3.00;;
72127;SDS011;60000;51.030;7.024;2023-07-20T03:27:26;8.53;;;3.17;;
72127;SDS011;60000;51.030;7.024;2023-07-20T03:29:51;12.40;;;3.37;;
72127;SDS011;60000;51.030;7.024;2023-07-20T03:32:16;10.53;;;3.53;;
72127;SDS011;60000;51.030;7.024;2023-07-20T03:34:41;12.20;;;3.60;;
72127;SDS011;60000;51.030;7.024;2023-07-20T03:37:07;12.48;;;4.10;;
72127;SDS011;60000;51.030;7.024;2023-07-20T03:39:32;8.60;;;3.00;;
72127;SDS011;60000;51.030;7.024;2023-07-20T03:41:58;9.50;;;3.00;;
72127;SDS011;60000;51.030;7.024;2023-07-20T03:44:24;11.52;;;4.28;;
72127;SDS011;60000;51.030;7.024;2023-07-20T03:46:49;14.73;;;4.80;;
72127;SDS011;60000;51.030;7.024;2023-07-20T03:49:14;12.30;;;3.90;;
72127;SDS011;60000;51.030;7.024;2023-07-20T03:51:40;11.47;;;4.13;;
72127;SDS011;60000;51.030;7.024;2023-07-20T03:54:05;12.03;;;3.33;;
72127;SDS011;60000;51.030;7.024;2023-07-20T03:56:30;9.03;;;3.53;;
72127;SDS011;60000;51.030;7.024;2023-07-20T03:59:00;9.68;;;3.42;;
72127;SDS011;60000;51.030;7.024;2023-07-20T04:01:25;10.27;;;3.83;;
72127;SDS011;60000;51.030;7.024;2023-07-20T04:03:50;13.27;;;3.50;;
72127;SDS011;60000;51.030;7.024;2023-07-20T04:06:16;10.13;;;3.60;;
72127;SDS011;60000;51.030;7.024;2023-07-20T04:08:42;12.80;;;3.92;;
72127;SDS011;60000;51.030;7.024;2023-07-20T04:11:07;10.40;;;3.43;;
72127;SDS011;60000;51.030;7.024;2023-07-20T04:13:33;25.70;;;3.67;;
72127;SDS011;60000;51.030;7.024;2023-07-20T04:15:59;15.65;;;4.97;;
72127;SDS011;60000;51.030;7.024;2023-07-20T04:18:25;11.35;;;3.33;;
72127;SDS011;60000;51.030;7.024;2023-07-20T04:20:50;11.37;;;3.43;;
72127;SDS011;60000;51.030;7.024;2023-07-20T04:23:16;10.33;;;3.60;;
72127;SDS011;60000;51.030;7.024;2023-07-20T04:25:41;10.35;;;4.05;;
72127;SDS011;60000;51.030;7.024;2023-07-20T04:28:07;13.90;;;4.33;;
72127;SDS011;60000;51.030;7.024;2023-07-20T04:30:35;10.70;;;3.85;;
72127;SDS011;60000;51.030;7.024;2023-07-20T04:33:02;9.27;;;3.50;;
72127;SDS011;60000;51.030;7.024;2023-07-20T04:38:13;9.45;;;3.65;;
72127;SDS011;60000;51.030;7.024;2023-07-20T04:40:40;11.75;;;3.67;;
72127;SDS011;60000;51.030;7.024;2023-07-20T04:43:06;10.37;;;3.90;;
72127;SDS011;60000;51.030;7.024;2023-07-20T04:45:31;10.80;;;3.93;;
72127;SDS011;60000;51.030;7.024;2023-07-20T04:47:56;11.87;;;3.53;;
72127;SDS011;60000;51.030;7.024;2023-07-20T04:50:22;8.20;;;2.95;;
72127;SDS011;60000;51.030;7.024;2023-07-20T04:52:49;10.17;;;3.10;;
72127;SDS011;60000;51.030;7.024;2023-07-20T04:55:14;9.43;;;3.10;;
72127;SDS011;60000;51.030;7.024;2023-07-20T04:57:40;8.43;;;3.65;;
72127;SDS011;60000;51.030;7.024;2023-07-20T05:00:05;9.90;;;3.33;;
72127;SDS011;60000;51.030;7.024;2023-07-20T05:02:31;8.98;;;3.10;;
72127;SDS011;60000;51.030;7.024;2023-07-20T05:04:56;11.77;;;3.83;;
72127;SDS011;60000;51.030;7.024;2023-07-20T05:07:22;9.17;;;3.53;;
72127;SDS011;60000;51.030;7.024;2023-07-20T05:09:47;8.07;;;3.37;;
72127;SDS011;60000;51.030;7.024;2023-07-20T05:12:12;11.17;;;3.43;;
72127;SDS011;60000;51.030;7.024;2023-07-20T05:14:38;10.57;;;3.70;;
72127;SDS011;60000;51.030;7.024;2023-07-20T05:17:03;8.90;;;3.08;;
72127;SDS011;60000;51.030;7.024;2023-07-20T05:19:29;10.53;;;3.70;;
72127;SDS011;60000;51.030;7.024;2023-07-20T05:21:54;11.10;;;4.63;;
72127;SDS011;60000;51.030;7.024;2023-07-20T05:24:19;7.83;;;3.27;;
72127;SDS011;60000;51.030;7.024;2023-07-20T05:26:45;8.13;;;3.50;;
72127;SDS011;60000;51.030;7.024;2023-07-20T05:29:10;10.77;;;3.80;;
72127;SDS011;60000;51.030;7.024;2023-07-20T05:31:35;11.87;;;3.77;;
72127;SDS011;60000;51.030;7.024;2023-07-20T05:34:01;10.33;;;3.43;;
72127;SDS011;60000;51.030;7.024;2023-07-20T05:36:26;10.23;;;3.17;;
72127;SDS011;60000;51.030;7.024;2023-07-20T05:38:51;7.55;;;2.60;;
72127;SDS011;60000;51.030;7.024;2023-07-20T05:41:17;9.30;;;2.67;;
72127;SDS011;60000;51.030;7.024;2023-07-20T05:43:42;11.57;;;3.43;;
72127;SDS011;60000;51.030;7.024;2023-07-20T05:46:08;12.07;;;4.43;;
72127;SDS011;60000;51.030;7.024;2023-07-20T05:48:33;13.10;;;4.28;;
72127;SDS011;60000;51.030;7.024;2023-07-20T05:50:59;8.60;;;4.03;;
72127;SDS011;60000;51.030;7.024;2023-07-20T05:53:24;15.73;;;5.17;;
72127;SDS011;60000;51.030;7.024;2023-07-20T05:55:53;9.07;;;5.10;;
72127;SDS011;60000;51.030;7.024;2023-07-20T05:58:19;7.93;;;3.83;;
72127;SDS011;60000;51.030;7.024;2023-07-20T06:00:47;7.90;;;3.77;;
72127;SDS011;60000;51.030;7.024;2023-07-20T06:03:13;11.60;;;5.90;;
72127;SDS011;60000;51.030;7.024;2023-07-20T06:05:38;11.63;;;6.10;;
72127;SDS011;60000;51.030;7.024;2023-07-20T06:08:04;13.60;;;6.60;;
72127;SDS011;60000;51.030;7.024;2023-07-20T06:10:29;11.23;;;5.37;;
72127;SDS011;60000;51.030;7.024;2023-07-20T06:12:54;10.83;;;5.37;;
72127;SDS011;60000;51.030;7.024;2023-07-20T06:15:24;13.50;;;5.85;;
72127;SDS011;60000;51.030;7.024;2023-07-20T06:17:56;8.80;;;4.05;;
72127;SDS011;60000;51.030;7.024;2023-07-20T06:20:22;9.63;;;3.67;;
72127;SDS011;60000;51.030;7.024;2023-07-20T06:22:48;7.22;;;3.35;;
72127;SDS011;60000;51.030;7.024;2023-07-20T06:25:13;8.00;;;3.53;;
72127;SDS011;60000;51.030;7.024;2023-07-20T06:27:39;11.33;;;6.57;;
72127;SDS011;60000;51.030;7.024;2023-07-20T06:30:04;12.73;;;6.20;;
72127;SDS011;60000;51.030;7.024;2023-07-20T06:32:30;10.77;;;5.68;;
72127;SDS011;60000;51.030;7.024;2023-07-20T06:34:56;8.50;;;4.75;;
72127;SDS011;60000;51.030;7.024;2023-07-20T06:37:21;9.70;;;4.77;;
72127;SDS011;60000;51.030;7.024;2023-07-20T06:39:47;10.27;;;5.00;;
72127;SDS011;60000;51.030;7.024;2023-07-20T06:42:12;9.33;;;5.20;;
72127;SDS011;60000;51.030;7.024;2023-07-20T06:44:37;8.77;;;4.40;;
72127;SDS011;60000;51.030;7.024;2023-07-20T06:47:03;7.87;;;4.13;;
72127;SDS011;60000;51.030;7.024;2023-07-20T06:49:28;11.88;;;6.88;;
72127;SDS011;60000;51.030;7.024;2023-07-20T06:51:54;9.27;;;5.27;;
72127;SDS011;60000;51.030;7.024;2023-07-20T06:54:20;7.70;;;4.40;;
72127;SDS011;60000;51.030;7.024;2023-07-20T06:56:45;8.40;;;3.90;;
72127;SDS011;60000;51.030;7.024;2023-07-20T06:59:10;7.50;;;4.40;;
72127;SDS011;60000;51.030;7.024;2023-07-20T07:01:36;9.48;;;5.72;;
72127;SDS011;60000;51.030;7.024;2023-07-20T07:04:01;8.63;;;5.07;;
72127;SDS011;60000;51.030;7.024;2023-07-20T07:06:27;10.20;;;5.47;;
72127;SDS011;60000;51.030;7.024;2023-07-20T07:08:55;8.40;;;4.85;;
72127;SDS011;60000;51.030;7.024;2023-07-20T07:11:20;9.87;;;5.63;;
72127;SDS011;60000;51.030;7.024;2023-07-20T07:13:46;10.05;;;5.60;;
72127;SDS011;60000;51.030;7.024;2023-07-20T07:16:14;9.10;;;4.00;;
72127;SDS011;60000;51.030;7.024;2023-07-20T07:18:43;7.57;;;4.22;;
72127;SDS011;60000;51.030;7.024;2023-07-20T07:21:09;10.05;;;5.30;;
72127;SDS011;60000;51.030;7.024;2023-07-20T07:23:34;10.10;;;5.50;;
72127;SDS011;60000;51.030;7.024;2023-07-20T07:25:59;8.43;;;4.80;;
72127;SDS011;60000;51.030;7.024;2023-07-20T07:28:25;8.23;;;4.33;;
72127;SDS011;60000;51.030;7.024;2023-07-20T07:30:50;9.13;;;3.80;;
72127;SDS011;60000;51.030;7.024;2023-07-20T07:33:15;10.97;;;5.53;;
72127;SDS011;60000;51.030;7.024;2023-07-20T07:35:40;9.50;;;3.83;;
72127;SDS011;60000;51.030;7.024;2023-07-20T07:38:06;6.73;;;3.57;;
72127;SDS011;60000;51.030;7.024;2023-07-20T07:40:31;8.13;;;4.63;;
72127;SDS011;60000;51.030;7.024;2023-07-20T07:42:57;6.90;;;3.37;;
72127;SDS011;60000;51.030;7.024;2023-07-20T07:45:22;7.77;;;3.20;;
72127;SDS011;60000;51.030;7.024;2023-07-20T07:47:47;7.77;;;3.43;;
72127;SDS011;60000;51.030;7.024;2023-07-20T07:50:13;7.60;;;3.50;;
72127;SDS011;60000;51.030;7.024;2023-07-20T07:52:38;7.60;;;4.50;;
72127;SDS011;60000;51.030;7.024;2023-07-20T07:55:03;8.80;;;3.30;;
72127;SDS011;60000;51.030;7.024;2023-07-20T07:57:29;7.03;;;3.25;;
72127;SDS011;60000;51.030;7.024;2023-07-20T07:59:55;7.17;;;3.97;;
72127;SDS011;60000;51.030;7.024;2023-07-20T08:02:20;8.27;;;4.40;;
72127;SDS011;60000;51.030;7.024;2023-07-20T08:04:46;7.88;;;4.20;;
72127;SDS011;60000;51.030;7.024;2023-07-20T08:07:12;6.50;;;2.80;;
72127;SDS011;60000;51.030;7.024;2023-07-20T08:09:37;6.70;;;2.60;;
72127;SDS011;60000;51.030;7.024;2023-07-20T08:12:02;7.60;;;3.73;;
72127;SDS011;60000;51.030;7.024;2023-07-20T08:14:28;7.17;;;3.20;;
72127;SDS011;60000;51.030;7.024;2023-07-20T08:16:54;11.43;;;4.27;;
72127;SDS011;60000;51.030;7.024;2023-07-20T08:19:19;6.80;;;3.27;;
72127;SDS011;60000;51.030;7.024;2023-07-20T08:21:44;5.63;;;2.53;;
72127;SDS011;60000;51.030;7.024;2023-07-20T08:24:10;7.20;;;3.50;;
72127;SDS011;60000;51.030;7.024;2023-07-20T08:26:35;5.57;;;2.47;;
72127;SDS011;60000;51.030;7.024;2023-07-20T08:29:00;7.60;;;2.93;;
72127;SDS011;60000;51.030;7.024;2023-07-20T08:31:26;7.95;;;3.80;;
72127;SDS011;60000;51.030;7.024;2023-07-20T08:33:53;6.00;;;2.60;;
72127;SDS011;60000;51.030;7.024;2023-07-20T08:36:18;7.63;;;2.90;;
72127;SDS011;60000;51.030;7.024;2023-07-20T08:38:43;7.53;;;3.10;;
72127;SDS011;60000;51.030;7.024;2023-07-20T08:41:09;5.57;;;1.90;;
72127;SDS011;60000;51.030;7.024;2023-07-20T08:43:34;6.10;;;1.60;;
72127;SDS011;60000;51.030;7.024;2023-07-20T08:46:02;4.68;;;2.00;;
72127;SDS011;60000;51.030;7.024;2023-07-20T08:48:29;4.82;;;1.75;;
72127;SDS011;60000;51.030;7.024;2023-07-20T08:50:55;5.13;;;1.80;;
72127;SDS011;60000;51.030;7.024;2023-07-20T08:53:22;4.68;;;2.22;;
72127;SDS011;60000;51.030;7.024;2023-07-20T08:55:48;5.15;;;1.70;;
72127;SDS011;60000;51.030;7.024;2023-07-20T08:58:15;4.65;;;1.80;;
72127;SDS011;60000;51.030;7.024;2023-07-20T09:00:42;3.83;;;1.40;;
72127;SDS011;60000;51.030;7.024;2023-07-20T09:03:08;3.70;;;1.42;;
72127;SDS011;60000;51.030;7.024;2023-07-20T09:05:34;3.73;;;1.07;;
72127;SDS011;60000;51.030;7.024;2023-07-20T09:08:00;4.60;;;1.30;;
72127;SDS011;60000;51.030;7.024;2023-07-20T09:10:27;3.45;;;1.30;;
72127;SDS011;60000;51.030;7.024;2023-07-20T09:12:53;4.50;;;1.40;;
72127;SDS011;60000;51.030;7.024;2023-07-20T09:15:18;3.77;;;1.40;;
72127;SDS011;60000;51.030;7.024;2023-07-20T09:17:48;3.53;;;1.38;;
72127;SDS011;60000;51.030;7.024;2023-07-20T09:20:14;4.75;;;1.50;;
72127;SDS011;60000;51.030;7.024;2023-07-20T09:22:41;4.03;;;1.52;;
72127;SDS011;60000;51.030;7.024;2023-07-20T09:27:41;3.93;;;1.23;;
72127;SDS011;60000;51.030;7.024;2023-07-20T09:30:08;2.40;;;1.00;;
72127;SDS011;60000;51.030;7.024;2023-07-20T09:32:39;2.80;;;1.10;;
72127;SDS011;60000;51.030;7.024;2023-07-20T09:35:06;3.58;;;0.93;;
72127;SDS011;60000;51.030;7.024;2023-07-20T09:37:37;5.00;;;1.10;;
72127;SDS011;60000;51.030;7.024;2023-07-20T09:40:02;4.93;;;1.40;;
72127;SDS011;60000;51.030;7.024;2023-07-20T09:42:31;3.28;;;1.30;;
72127;SDS011;60000;51.030;7.024;2023-07-20T09:44:56;4.23;;;1.30;;
72127;SDS011;60000;51.030;7.024;2023-07-20T09:47:22;3.30;;;1.30;;
72127;SDS011;60000;51.030;7.024;2023-07-20T09:49:48;3.30;;;1.25;;
72127;SDS011;60000;51.030;7.024;2023-07-20T09:52:13;6.57;;;1.50;;
72127;SDS011;60000;51.030;7.024;2023-07-20T09:54:40;4.60;;;1.70;;
72127;SDS011;60000;51.030;7.024;2023-07-20T09:57:10;5.10;;;1.50;;
72127;SDS011;60000;51.030;7.024;2023-07-20T09:59:38;3.70;;;1.45;;
72127;SDS011;60000;51.030;7.024;2023-07-20T10:02:04;3.53;;;1.23;;
72127;SDS011;60000;51.030;7.024;2023-07-20T10:04:36;3.28;;;1.10;;
72127;SDS011;60000;51.030;7.024;2023-07-20T10:07:03;3.23;;;1.10;;
72127;SDS011;60000;51.030;7.024;2023-07-20T10:09:35;4.53;;;1.20;;
72127;SDS011;60000;51.030;7.024;2023-07-20T10:12:04;2.97;;;1.20;;
72127;SDS011;60000;51.030;7.024;2023-07-20T10:14:32;6.25;;;1.48;;
72127;SDS011;60000;51.030;7.024;2023-07-20T10:17:05;3.10;;;0.90;;
72127;SDS011;60000;51.030;7.024;2023-07-20T10:22:43;3.75;;;1.10;;
72127;SDS011;60000;51.030;7.024;2023-07-20T10:25:01;2.95;;;1.08;;
72127;SDS011;60000;51.030;7.024;2023-07-20T10:27:29;3.83;;;0.95;;
72127;SDS011;60000;51.030;7.024;2023-07-20T10:29:55;2.57;;;0.77;;
72127;SDS011;60000;51.030;7.024;2023-07-20T10:32:24;2.53;;;0.70;;
72127;SDS011;60000;51.030;7.024;2023-07-20T10:34:53;3.85;;;1.00;;
72127;SDS011;60000;51.030;7.024;2023-07-20T10:40:25;2.15;;;0.80;;
72127;SDS011;60000;51.030;7.024;2023-07-20T10:42:59;2.97;;;0.90;;
72127;SDS011;60000;51.030;7.024;2023-07-20T10:45:41;3.80;;;1.10;;
72127;SDS011;60000;51.030;7.024;2023-07-20T10:48:13;3.35;;;1.27;;
72127;SDS011;60000;51.030;7.024;2023-07-20T10:50:41;3.80;;;1.00;;
72127;SDS011;60000;51.030;7.024;2023-07-20T10:53:13;3.58;;;1.05;;
72127;SDS011;60000;51.030;7.024;2023-07-20T10:55:43;2.65;;;1.10;;
72127;SDS011;60000;51.030;7.024;2023-07-20T10:58:10;3.13;;;0.90;;
72127;SDS011;60000;51.030;7.024;2023-07-20T11:00:37;3.80;;;1.00;;
72127;SDS011;60000;51.030;7.024;2023-07-20T11:03:29;2.43;;;1.10;;
72127;SDS011;60000;51.030;7.024;2023-07-20T11:05:56;3.47;;;1.17;;
72127;SDS011;60000;51.030;7.024;2023-07-20T11:08:44;2.90;;;1.00;;
72127;SDS011;60000;51.030;7.024;2023-07-20T11:11:24;3.53;;;1.08;;
72127;SDS011;60000;51.030;7.024;2023-07-20T11:14:09;4.32;;;1.10;;
72127;SDS011;60000;51.030;7.024;2023-07-20T11:16:37;3.60;;;1.03;;
72127;SDS011;60000;51.030;7.024;2023-07-20T11:19:14;2.85;;;0.90;;
72127;SDS011;60000;51.030;7.024;2023-07-20T11:21:58;3.15;;;0.88;;
72127;SDS011;60000;51.030;7.024;2023-07-20T11:24:23;2.67;;;0.90;;
72127;SDS011;60000;51.030;7.024;2023-07-20T11:26:50;2.47;;;0.90;;
72127;SDS011;60000;51.030;7.024;2023-07-20T11:29:19;2.75;;;0.90;;
72127;SDS011;60000;51.030;7.024;2023-07-20T11:31:47;2.42;;;1.00;;
72127;SDS011;60000;51.030;7.024;2023-07-20T11:36:39;3.40;;;0.90;;
72127;SDS011;60000;51.030;7.024;2023-07-20T11:39:09;3.83;;;0.88;;
72127;SDS011;60000;51.030;7.024;2023-07-20T11:41:35;3.57;;;1.10;;
72127;SDS011;60000;51.030;7.024;2023-07-20T11:44:00;5.90;;;0.98;;
72127;SDS011;60000;51.030;7.024;2023-07-20T11:46:27;2.58;;;0.80;;
72127;SDS011;60000;51.030;7.024;2023-07-20T11:49:00;2.63;;;0.80;;
72127;SDS011;60000;51.030;7.024;2023-07-20T11:51:29;4.65;;;0.98;;
72127;SDS011;60000;51.030;7.024;2023-07-20T11:53:55;2.65;;;0.98;;
72127;SDS011;60000;51.030;7.024;2023-07-20T11:56:22;2.00;;;0.60;;
72127;SDS011;60000;51.030;7.024;2023-07-20T11:58:48;2.13;;;0.90;;
72127;SDS011;60000;51.030;7.024;2023-07-20T12:01:13;2.53;;;0.70;;
72127;SDS011;60000;51.030;7.024;2023-07-20T12:03:39;2.75;;;0.70;;
72127;SDS011;60000;51.030;7.024;2023-07-20T12:06:09;2.37;;;0.70;;
72127;SDS011;60000;51.030;7.024;2023-07-20T12:08:38;2.63;;;0.90;;
72127;SDS011;60000;51.030;7.024;2023-07-20T12:11:05;2.92;;;0.90;;
72127;SDS011;60000;51.030;7.024;2023-07-20T12:13:38;2.88;;;0.93;;
72127;SDS011;60000;51.030;7.024;2023-07-20T12:16:13;3.87;;;1.00;;
72127;SDS011;60000;51.030;7.024;2023-07-20T12:18:40;3.60;;;0.98;;
72127;SDS011;60000;51.030;7.024;2023-07-20T12:21:06;1.85;;;0.80;;
72127;SDS011;60000;51.030;7.024;2023-07-20T12:23:40;1.52;;;0.60;;
72127;SDS011;60000;51.030;7.024;2023-07-20T12:26:09;2.83;;;0.90;;
72127;SDS011;60000;51.030;7.024;2023-07-20T12:28:38;3.13;;;0.97;;
72127;SDS011;60000;51.030;7.024;2023-07-20T12:31:05;2.58;;;0.90;;
72127;SDS011;60000;51.030;7.024;2023-07-20T12:33:31;4.88;;;1.00;;
72127;SDS011;60000;51.030;7.024;2023-07-20T12:35:56;2.30;;;0.90;;
72127;SDS011;60000;51.030;7.024;2023-07-20T12:38:23;2.25;;;0.80;;
72127;SDS011;60000;51.030;7.024;2023-07-20T12:40:49;3.10;;;0.80;;
72127;SDS011;60000;51.030;7.024;2023-07-20T12:43:14;2.33;;;0.80;;
72127;SDS011;60000;51.030;7.024;2023-07-20T12:45:40;2.17;;;0.83;;
72127;SDS011;60000;51.030;7.024;2023-07-20T12:48:06;1.65;;;0.77;;
72127;SDS011;60000;51.030;7.024;2023-07-20T12:50:31;2.73;;;1.10;;
72127;SDS011;60000;51.030;7.024;2023-07-20T12:52:57;3.23;;;1.03;;
72127;SDS011;60000;51.030;7.024;2023-07-20T12:55:22;2.65;;;0.80;;
72127;SDS011;60000;51.030;7.024;2023-07-20T12:57:47;2.73;;;0.87;;
72127;SDS011;60000;51.030;7.024;2023-07-20T13:00:13;2.67;;;0.90;;
72127;SDS011;60000;51.030;7.024;2023-07-20T13:02:39;2.88;;;0.98;;
72127;SDS011;60000;51.030;7.024;2023-07-20T13:05:06;3.53;;;0.80;;
72127;SDS011;60000;51.030;7.024;2023-07-20T13:07:33;2.20;;;0.90;;
72127;SDS011;60000;51.030;7.024;2023-07-20T13:10:00;2.50;;;0.93;;
72127;SDS011;60000;51.030;7.024;2023-07-20T13:12:26;2.97;;;0.90;;
72127;SDS011;60000;51.030;7.024;2023-07-20T13:14:52;3.07;;;0.90;;
72127;SDS011;60000;51.030;7.024;2023-07-20T13:17:28;3.75;;;0.88;;
72127;SDS011;60000;51.030;7.024;2023-07-20T13:19:54;2.78;;;0.88;;
72127;SDS011;60000;51.030;7.024;2023-07-20T13:22:20;3.13;;;1.02;;
72127;SDS011;60000;51.030;7.024;2023-07-20T13:24:46;3.00;;;1.00;;
72127;SDS011;60000;51.030;7.024;2023-07-20T13:27:13;4.13;;;1.00;;
72127;SDS011;60000;51.030;7.024;2023-07-20T13:29:39;2.57;;;0.70;;
72127;SDS011;60000;51.030;7.024;2023-07-20T13:32:04;2.93;;;0.97;;
72127;SDS011;60000;51.030;7.024;2023-07-20T13:34:31;2.27;;;0.90;;
72127;SDS011;60000;51.030;7.024;2023-07-20T13:36:56;3.20;;;1.00;;
72127;SDS011;60000;51.030;7.024;2023-07-20T13:39:22;4.87;;;1.00;;
72127;SDS011;60000;51.030;7.024;2023-07-20T13:41:49;3.08;;;1.00;;
72127;SDS011;60000;51.030;7.024;2023-07-20T13:44:14;2.43;;;0.90;;
72127;SDS011;60000;51.030;7.024;2023-07-20T13:46:40;3.00;;;0.90;;
72127;SDS011;60000;51.030;7.024;2023-07-20T13:49:05;4.23;;;1.00;;
72127;SDS011;60000;51.030;7.024;2023-07-20T13:51:30;4.80;;;1.03;;
72127;SDS011;60000;51.030;7.024;2023-07-20T13:53:56;2.85;;;1.00;;
72127;SDS011;60000;51.030;7.024;2023-07-20T13:56:22;2.17;;;0.90;;
72127;SDS011;60000;51.030;7.024;2023-07-20T13:58:49;2.23;;;0.90;;
72127;SDS011;60000;51.030;7.024;2023-07-20T14:01:15;2.92;;;1.08;;
72127;SDS011;60000;51.030;7.024;2023-07-20T14:03:41;2.85;;;1.17;;
72127;SDS011;60000;51.030;7.024;2023-07-20T14:06:06;2.33;;;0.90;;
72127;SDS011;60000;51.030;7.024;2023-07-20T14:08:32;2.70;;;0.90;;
72127;SDS011;60000;51.030;7.024;2023-07-20T14:10:57;3.43;;;1.20;;
72127;SDS011;60000;51.030;7.024;2023-07-20T14:13:23;4.25;;;1.00;;
72127;SDS011;60000;51.030;7.024;2023-07-20T14:15:48;2.10;;;0.70;;
72127;SDS011;60000;51.030;7.024;2023-07-20T14:18:15;3.00;;;0.93;;
72127;SDS011;60000;51.030;7.024;2023-07-20T14:20:40;2.83;;;0.80;;
72127;SDS011;60000;51.030;7.024;2023-07-20T14:23:06;3.07;;;1.00;;
72127;SDS011;60000;51.030;7.024;2023-07-20T14:25:31;3.40;;;1.00;;
72127;SDS011;60000;51.030;7.024;2023-07-20T14:27:57;3.40;;;1.10;;
72127;SDS011;60000;51.030;7.024;2023-07-20T14:30:23;4.40;;;1.10;;
72127;SDS011;60000;51.030;7.024;2023-07-20T14:32:48;3.13;;;1.00;;
72127;SDS011;60000;51.030;7.024;2023-07-20T14:35:13;2.40;;;0.85;;
72127;SDS011;60000;51.030;7.024;2023-07-20T14:37:39;2.27;;;0.73;;
72127;SDS011;60000;51.030;7.024;2023-07-20T14:40:04;2.57;;;0.97;;
72127;SDS011;60000;51.030;7.024;2023-07-20T14:42:30;2.97;;;1.00;;
72127;SDS011;60000;51.030;7.024;2023-07-20T14:44:57;2.53;;;0.90;;
72127;SDS011;60000;51.030;7.024;2023-07-20T14:47:22;3.50;;;1.00;;
72127;SDS011;60000;51.030;7.024;2023-07-20T14:49:47;2.10;;;0.83;;
72127;SDS011;60000;51.030;7.024;2023-07-20T14:52:13;3.17;;;1.00;;
72127;SDS011;60000;51.030;7.024;2023-07-20T14:54:38;4.67;;;1.07;;
72127;SDS011;60000;51.030;7.024;2023-07-20T14:57:04;3.20;;;0.90;;
72127;SDS011;60000;51.030;7.024;2023-07-20T14:59:29;1.93;;;0.73;;
72127;SDS011;60000;51.030;7.024;2023-07-20T15:01:55;2.60;;;1.00;;
72127;SDS011;60000;51.030;7.024;2023-07-20T15:04:20;3.03;;;1.00;;